• Join FlightAware (Why Join?)
  • Login
  • US Flag 
09:01PM EDT


 

Airport Tracker/Info


-or-


 

Live Flight TrackerFlight Track Log ✈ FLG3729 ✈ 30-Apr-2013 ✈ KALB - KDTW

Flight Track Log - Related Links

Times and Time Zones

All times are in EDT time to prevent confusion due to time zone crossing. See the FLG3729 flight status page for this flight to view local times or setup timezone preferences in your user account.

Time Position Orientation Groundspeed Altitude Reporting Facility
EDT Latitude Longitude Course Direction KTS MPH feet Rate Location/Type
05:46AM 42.7631 -73.8089 304° West 140 161 1,200  Level Boston Center
05:47AM 42.7797 -73.8119 352° North 161 185 1,900 2,520 Climbing Boston Center
05:48AM 42.8147 -73.8581 316° Northwest 217 250 4,000 2,640 Climbing Boston Center
05:49AM 42.8104 -74.1724 281° West  Level FlightAware Approximate
05:49AM 42.8533 -73.9356 304° West 232 267 6,700  Level Boston Center
05:50AM 42.8287 -74.3009 281° West  Level FlightAware Approximate
05:50AM 42.8978 -74.0244 304° West 268 308 9,900  Level Boston Center
05:51AM 42.8493 -74.4287 283° West  Level FlightAware Approximate
05:51AM 42.9464 -74.1250 303° West 328 377 10,000  Level Boston Center
05:52AM 42.8765 -74.5529 304° West  Level FlightAware Approximate
05:52AM 43.0111 -74.2544 304° West 375 432 11,600  Level Boston Center
05:53AM 43.0342 -74.3772 284° West 377 434 13,200 1,680 Climbing Boston Center
05:54AM 43.0458 -74.5397 276° West 389 448 15,000 1,380 Climbing Boston Center
05:55AM 43.0578 -74.6764 277° West 406 467 16,000 1,200 Climbing Boston Center
05:56AM 43.0711 -74.8475 276° West 411 473 17,400 1,200 Climbing Boston Center
05:57AM 43.0822 -75.0072 275° West 411 473 18,500 1,020 Climbing Boston Center
05:58AM 43.0931 -75.1642 275° West 421 484 19,500 960 Climbing Boston Center
05:59AM 43.1058 -75.3267 276° West 427 491 20,500 1,020 Climbing Boston Center
06:00AM 43.1161 -75.4894 275° West 427 491 21,600 900 Climbing Boston Center
06:01AM 43.1269 -75.6322 276° West 427 491 22,400 660 Climbing Boston Center
06:03AM 43.1497 -76.0183 275° West 424 488 23,900 600 Climbing Cleveland Center
06:04AM 43.1603 -76.1825 275° West 436 502 24,500 600 Climbing Cleveland Center
06:05AM 43.1478 -76.3514 264° West 441 507 25,100 600 Climbing Cleveland Center
06:06AM 43.1350 -76.5172 264° West 441 507 25,700 600 Climbing Cleveland Center
06:07AM 43.1197 -76.6833 263° West 447 514 26,300 600 Climbing Cleveland Center
06:08AM 43.1064 -76.8464 264° West 447 514 27,000 600 Climbing Cleveland Center
06:09AM 43.0908 -77.0094 263° West 447 514 27,600 480 Climbing Cleveland Center
06:10AM 43.0769 -77.1722 263° West 447 514 28,000 180 Climbing Cleveland Center
06:11AM 43.0608 -77.3381 262° West 447 514 28,000  Level Cleveland Center
06:12AM 43.0444 -77.5064 262° West 452 520 28,000  Level Cleveland Center
06:13AM 43.0281 -77.6722 262° West 447 514 28,000  Level Cleveland Center
06:14AM 43.0133 -77.8403 263° West 447 514 28,000  Level Cleveland Center
06:15AM 42.9964 -78.0086 262° West 447 514 28,000  Level Cleveland Center
06:16AM 42.9811 -78.1708 263° West 447 514 28,000  Level Cleveland Center
06:17AM 42.9636 -78.3392 262° West 447 514 28,000  Level Cleveland Center
06:18AM 42.9442 -78.5214 262° West 452 520 28,000  Level Cleveland Center
06:19AM 42.9261 -78.6864 262° West 447 514 28,000  Level Cleveland Center
06:20AM 42.9017 -78.8514 259° West 447 514 28,000  Level Cleveland Center
06:21AM 42.8789 -79.0136 259° West 447 514 28,000  Level Cleveland Center
06:22AM 42.8561 -79.1814 260° West 447 514 28,000  Level Cleveland Center
06:23AM 42.8267 -79.3406 256° West 447 514 28,000  Level Cleveland Center
06:24AM 42.8053 -79.5050 260° West 452 520 28,000  Level Cleveland Center
06:25AM 42.7817 -79.6667 259° West 446 513 28,000  Level Cleveland Center
06:26AM 42.7578 -79.8281 259° West 446 513 28,000  Level Cleveland Center
06:27AM 42.7442 -79.9953 264° West 446 513 28,000  Level Cleveland Center
06:28AM 42.7386 -80.1592 267° West 446 513 28,000  Level Cleveland Center
06:29AM 42.7308 -80.3231 266° West 440 506 28,000  Level Cleveland Center
06:30AM 42.7247 -80.4900 267° West 440 506 28,000  Level Cleveland Center
06:31AM 42.7186 -80.6342 267° West 440 506 28,000  Level Cleveland Center
06:32AM 42.7122 -80.8008 267° West 445 512 28,000 -300 Level Cleveland Center
06:33AM 42.6972 -80.9589 263° West 439 505 27,400 -840 Descending Cleveland Center
06:34AM 42.6800 -81.1142 261° West 422 486 26,400 -1,500 Descending Cleveland Center
06:35AM 42.6625 -81.2750 262° West 427 491 24,500 -1,980 Descending Cleveland Center
06:36AM 42.6447 -81.4383 262° West 432 497 22,500 -1,920 Descending Cleveland Center
06:37AM 42.6267 -81.5961 261° West 432 497 20,700 -1,740 Descending Cleveland Center
06:38AM 42.6064 -81.7539 260° West 432 497 19,100 -1,500 Descending Cleveland Center
06:39AM 42.5881 -81.9031 261° West 421 484 17,700 -1,500 Descending Cleveland Center
06:40AM 42.5697 -82.0519 261° West 409 471 16,200 -1,740 Descending Cleveland Center
06:40AM 42.5600 -82.1447 262° West 397 457 15,200 -1,740 Descending Cleveland Center
06:41AM 42.5528 -82.2094 261° West 393 452 14,500 -1,320 Descending Cleveland Center
06:42AM 42.5322 -82.3386 258° West 398 458 13,200 -1,200 Descending Cleveland Center
06:43AM 42.5175 -82.4789 262° West 392 451 12,100 -600 Descending Cleveland Center
06:44AM 42.4839 -82.6103 251° West 382 440 12,000 -900 Descending Cleveland Center
06:45AM 42.4467 -82.7161 245° Southwest 355 409 10,400 -1,500 Descending Cleveland Center
06:46AM 42.4136 -82.8133 245° Southwest 317 365 9,100 -1,260 Descending Cleveland Center
06:47AM 42.3928 -82.9111 254° West 284 327 7,900 -1,500 Descending Cleveland Center
06:48AM 42.3803 -83.0089 260° West 273 314 6,100 -1,140 Descending Cleveland Center
06:49AM 42.3681 -83.1014 260° West 268 308 5,700 -1,020 Descending Cleveland Center
06:50AM 42.3594 -83.1992 263° West 263 303 4,100 -1,440 Descending Cleveland Center
06:51AM 42.3122 -83.2675 227° Southwest 166 191 2,700 -1,080 Descending Cleveland Center
06:52AM 42.2761 -83.2942 209° Southwest 113 130 1,900 -840 Descending Cleveland Center